createdAt,value
2017-03-16T00:00:48.473Z,7.75
2017-03-16T00:01:28.916Z,7.71
2017-03-16T00:02:09.379Z,7.67
2017-03-16T00:02:49.840Z,7.55
2017-03-16T00:03:30.326Z,7.58
2017-03-16T00:04:10.758Z,7.66
2017-03-16T00:04:51.227Z,7.62
2017-03-16T00:07:03.902Z,7.62
2017-03-16T00:07:44.380Z,7.59
2017-03-16T00:08:24.851Z,7.66
2017-03-16T00:09:05.333Z,7.66
2017-03-16T00:09:45.750Z,7.62
2017-03-16T00:10:26.181Z,7.58
2017-03-16T00:11:06.592Z,7.62
2017-03-16T00:11:46.997Z,7.63
2017-03-16T00:12:27.422Z,7.67
2017-03-16T00:13:07.816Z,7.58
2017-03-16T00:13:48.247Z,7.71
2017-03-16T00:14:28.661Z,7.62
2017-03-16T00:16:06.198Z,7.42
2017-03-16T00:16:46.407Z,7.47
2017-03-16T00:17:26.831Z,7.44
2017-03-16T00:18:07.219Z,7.47
2017-03-16T00:18:47.653Z,7.59
2017-03-16T00:19:28.049Z,7.4
2017-03-16T00:20:08.465Z,7.35
2017-03-16T00:20:48.881Z,7.32
2017-03-16T00:21:29.295Z,7.31
2017-03-16T00:22:09.693Z,7.32
2017-03-16T00:22:50.068Z,7.38
2017-03-16T00:24:27.434Z,7.42
2017-03-16T00:25:07.831Z,7.34
2017-03-16T00:25:48.278Z,7.34
2017-03-16T00:26:28.687Z,7.45
2017-03-16T00:27:09.102Z,7.4
2017-03-16T00:29:01.539Z,7.34
2017-03-16T00:29:41.958Z,7.34
2017-03-16T00:30:22.372Z,7.44
2017-03-16T00:31:02.753Z,7.56
2017-03-16T00:31:43.156Z,7.49
2017-03-16T00:33:35.663Z,7.38
2017-03-16T00:34:16.078Z,7.44
2017-03-16T00:34:56.493Z,7.47
2017-03-16T00:35:36.875Z,7.44
2017-03-16T00:36:17.243Z,7.45
2017-03-16T00:36:57.633Z,7.37
2017-03-16T00:37:38.013Z,7.37
2017-03-16T00:39:30.507Z,7.62
2017-03-16T00:40:10.921Z,7.71
2017-03-16T00:40:51.343Z,7.66
2017-03-16T00:41:31.773Z,7.5
2017-03-16T00:42:12.950Z,7.41
2017-03-16T00:44:05.565Z,7.35
2017-03-16T00:44:45.850Z,7.41
2017-03-16T00:45:26.260Z,7.42
2017-03-16T00:46:06.653Z,7.42
2017-03-16T00:46:47.071Z,7.35
2017-03-16T00:47:27.463Z,7.44
2017-03-16T00:49:04.842Z,7.44
2017-03-16T00:49:45.203Z,7.55
2017-03-16T00:50:25.587Z,7.62
2017-03-16T00:51:06.004Z,7.55
2017-03-16T00:51:46.395Z,7.55
2017-03-16T00:52:26.863Z,7.66
2017-03-16T00:53:07.229Z,7.66
2017-03-16T00:53:47.665Z,7.69
2017-03-16T00:54:28.101Z,7.6
2017-03-16T00:56:15.526Z,7.23
2017-03-16T00:56:55.914Z,7.27
2017-03-16T00:57:36.337Z,7.19
2017-03-16T00:58:16.768Z,7.01
2017-03-16T00:58:57.205Z,7.12
2017-03-16T00:59:37.653Z,7.09
2017-03-16T01:00:18.097Z,7.08
2017-03-16T01:00:58.510Z,7.01
2017-03-16T01:01:38.926Z,7.01
2017-03-16T01:03:51.662Z,7.05
2017-03-16T01:04:32.041Z,7.12
2017-03-16T01:05:12.449Z,6.95
2017-03-16T01:05:52.843Z,7.07
2017-03-16T01:06:33.255Z,7.02
2017-03-16T01:07:13.646Z,7.09
2017-03-16T01:07:54.030Z,7.07
2017-03-16T01:08:34.456Z,7.05
2017-03-16T01:09:14.821Z,7.09
2017-03-16T01:09:55.253Z,7.12
2017-03-16T01:10:35.635Z,6.99
2017-03-16T01:11:16.045Z,6.97
2017-03-16T01:11:56.419Z,6.87
2017-03-16T01:12:36.794Z,6.94
2017-03-16T01:13:17.170Z,6.8
2017-03-16T01:13:57.591Z,6.81
2017-03-16T01:14:37.977Z,6.81
2017-03-16T01:15:18.382Z,6.81
2017-03-16T01:15:58.764Z,6.69
2017-03-16T01:16:39.152Z,6.81
2017-03-16T01:17:19.573Z,6.87
2017-03-16T01:17:59.973Z,6.81
2017-03-16T01:18:40.390Z,6.77
2017-03-16T01:19:20.778Z,6.84
2017-03-16T01:20:01.194Z,6.89
2017-03-16T01:20:41.566Z,6.95
2017-03-16T01:21:22.004Z,6.9
2017-03-16T01:22:02.373Z,7.01
2017-03-16T01:22:42.773Z,7.01
2017-03-16T01:23:23.192Z,7.05
2017-03-16T01:24:03.599Z,7.01
2017-03-16T01:24:44.011Z,6.97
2017-03-16T01:26:21.359Z,6.99
2017-03-16T01:27:01.797Z,7.05
2017-03-16T01:27:42.247Z,7.01
2017-03-16T01:28:22.755Z,6.83
2017-03-16T01:29:03.113Z,6.87
2017-03-16T01:29:43.540Z,6.86
2017-03-16T01:30:23.984Z,7.02
2017-03-16T01:31:04.428Z,6.87
2017-03-16T01:31:44.849Z,7.01
2017-03-16T01:32:25.291Z,7.02
2017-03-16T01:33:05.737Z,7.02
2017-03-16T01:33:46.157Z,6.87
2017-03-16T01:34:27.241Z,6.87
2017-03-16T01:35:07.677Z,6.77
2017-03-16T01:35:48.107Z,6.89
2017-03-16T01:37:25.514Z,6.8
2017-03-16T01:38:05.889Z,6.84
2017-03-16T01:38:46.280Z,6.79
2017-03-16T01:39:26.705Z,6.66
2017-03-16T01:41:39.331Z,6.22
2017-03-16T01:42:19.760Z,6.14
2017-03-16T01:43:00.192Z,6.06
2017-03-16T01:43:40.646Z,5.93
2017-03-16T01:44:21.072Z,5.95
2017-03-16T01:45:01.499Z,5.95
2017-03-16T01:47:14.180Z,6.01
2017-03-16T01:47:54.599Z,5.88
2017-03-16T01:48:35.027Z,5.93
2017-03-16T01:49:15.423Z,5.86
2017-03-16T01:49:55.824Z,5.95
2017-03-16T01:50:36.246Z,6.01
2017-03-16T01:51:16.640Z,6.1
2017-03-16T01:51:57.061Z,6.11
2017-03-16T01:53:44.448Z,6.3
2017-03-16T01:54:24.872Z,6.33
2017-03-16T01:55:05.303Z,6.32
2017-03-16T01:55:45.735Z,6.25
2017-03-16T01:56:26.179Z,6.36
2017-03-16T01:57:06.603Z,6.33
2017-03-16T01:57:47.042Z,6.33
2017-03-16T01:58:27.472Z,6.28
2017-03-16T01:59:07.909Z,6.29
2017-03-16T02:00:55.390Z,6.28
2017-03-16T02:01:35.747Z,6.26
2017-03-16T02:02:16.163Z,6.22
2017-03-16T02:02:57.380Z,6.44
2017-03-16T02:05:10.003Z,6.35
2017-03-16T02:05:51.020Z,6.41
2017-03-16T02:06:31.428Z,6.44
2017-03-16T02:07:11.873Z,6.48
2017-03-16T02:07:52.286Z,6.58
2017-03-16T02:08:33.443Z,6.48
2017-03-16T02:09:13.859Z,6.58
2017-03-16T02:09:54.308Z,6.56
2017-03-16T02:10:34.748Z,6.56
2017-03-16T02:11:15.171Z,6.58
2017-03-16T02:11:55.593Z,6.58
2017-03-16T02:12:36.054Z,6.54
2017-03-16T02:13:16.500Z,6.51
2017-03-16T02:13:56.951Z,6.51
2017-03-16T02:14:37.344Z,6.51
2017-03-16T02:15:17.781Z,6.46
2017-03-16T02:15:58.232Z,6.35
2017-03-16T02:16:39.414Z,6.32
2017-03-16T02:17:19.816Z,6.1
2017-03-16T02:18:00.838Z,6.01
2017-03-16T02:18:41.264Z,6.13
2017-03-16T02:19:21.641Z,6.01
2017-03-16T02:20:02.050Z,5.98
2017-03-16T02:22:14.743Z,5.88
2017-03-16T02:22:55.132Z,5.83
2017-03-16T02:25:07.771Z,5.93
2017-03-16T02:25:48.207Z,5.85
2017-03-16T02:26:28.633Z,5.86
2017-03-16T02:27:09.057Z,5.75
2017-03-16T02:27:49.503Z,5.85
2017-03-16T02:28:29.930Z,5.86
2017-03-16T02:29:10.376Z,5.67
2017-03-16T02:29:50.807Z,5.74
2017-03-16T02:30:31.246Z,5.71
2017-03-16T02:31:11.669Z,5.67
2017-03-16T02:31:52.125Z,5.77
2017-03-16T02:32:32.561Z,5.73
2017-03-16T02:33:12.970Z,5.73
2017-03-16T02:33:53.392Z,5.71
2017-03-16T02:34:33.834Z,5.73
2017-03-16T02:35:14.269Z,5.67
2017-03-16T02:35:54.689Z,5.68
2017-03-16T02:36:35.133Z,5.64
2017-03-16T02:37:15.550Z,5.56
2017-03-16T02:37:55.980Z,5.55
2017-03-16T02:38:36.384Z,5.67
2017-03-16T02:40:13.742Z,5.75
2017-03-16T02:40:54.133Z,5.81
2017-03-16T02:41:34.528Z,5.67
2017-03-16T02:42:14.970Z,5.59
2017-03-16T02:42:55.385Z,5.68
2017-03-16T02:43:35.821Z,5.7
2017-03-16T02:44:16.245Z,5.66
2017-03-16T02:44:56.631Z,5.59
2017-03-16T02:45:37.053Z,5.6
2017-03-16T02:47:24.441Z,5.64
2017-03-16T02:48:04.880Z,5.53
2017-03-16T02:48:45.313Z,5.68
2017-03-16T02:49:25.751Z,5.7
2017-03-16T02:50:06.221Z,5.59
2017-03-16T02:50:48.245Z,5.67
2017-03-16T02:52:35.697Z,5.59
2017-03-16T02:53:16.049Z,5.56
2017-03-16T02:53:56.502Z,5.63
2017-03-16T02:54:36.940Z,5.74
2017-03-16T02:55:17.380Z,5.66
2017-03-16T02:55:57.839Z,5.66
2017-03-16T02:56:38.236Z,5.56
2017-03-16T02:57:18.695Z,5.53
2017-03-16T02:57:59.156Z,5.64
2017-03-16T02:58:40.298Z,5.67
2017-03-16T02:59:20.747Z,5.64
2017-03-16T03:00:01.176Z,5.7
2017-03-16T03:00:41.619Z,5.68
2017-03-16T03:01:22.060Z,5.71
2017-03-16T03:02:02.514Z,5.7
2017-03-16T03:02:42.934Z,5.74
2017-03-16T03:03:23.364Z,5.7
2017-03-16T03:04:03.777Z,5.73
2017-03-16T03:04:44.205Z,5.67
2017-03-16T03:05:24.661Z,5.66
2017-03-16T03:06:05.087Z,5.55
2017-03-16T03:06:45.541Z,5.57
2017-03-16T03:07:25.974Z,5.6
2017-03-16T03:08:06.420Z,5.55
2017-03-16T03:08:46.862Z,5.5
2017-03-16T03:09:27.308Z,5.46
2017-03-16T03:10:07.737Z,5.4
2017-03-16T03:10:48.166Z,5.43
2017-03-16T03:11:28.606Z,5.38
2017-03-16T03:12:09.054Z,5.4
2017-03-16T03:12:49.464Z,5.38
2017-03-16T03:13:29.906Z,5.35
2017-03-16T03:14:10.350Z,5.35
2017-03-16T03:14:50.799Z,5.45
2017-03-16T03:15:31.262Z,5.48
2017-03-16T03:16:11.667Z,5.41
2017-03-16T03:17:48.999Z,5.46
2017-03-16T03:18:29.407Z,5.49
2017-03-16T03:19:09.855Z,5.45
2017-03-16T03:19:50.296Z,5.46
2017-03-16T03:20:30.728Z,5.59
2017-03-16T03:22:28.380Z,5.64
2017-03-16T03:23:08.690Z,5.6
2017-03-16T03:23:49.111Z,5.64
2017-03-16T03:24:29.500Z,5.57
2017-03-16T03:25:09.913Z,5.55
2017-03-16T03:25:50.280Z,5.53
2017-03-16T03:26:30.659Z,5.59
2017-03-16T03:27:11.048Z,5.56
2017-03-16T03:27:51.463Z,5.55
2017-03-16T03:28:31.861Z,5.53
2017-03-16T03:29:12.265Z,5.56
2017-03-16T03:31:24.991Z,5.45
2017-03-16T03:32:05.375Z,5.48
2017-03-16T03:32:45.817Z,5.49
2017-03-16T03:33:26.271Z,5.52
2017-03-16T03:35:18.758Z,5.66
2017-03-16T03:35:59.173Z,5.66
2017-03-16T03:36:39.590Z,5.6
2017-03-16T03:37:19.987Z,5.56
2017-03-16T03:38:00.396Z,5.55
2017-03-16T03:38:40.801Z,5.53
2017-03-16T03:39:21.725Z,5.63
2017-03-16T03:40:02.147Z,5.56
2017-03-16T03:40:42.519Z,5.64
2017-03-16T03:41:22.899Z,5.6
2017-03-16T03:42:03.308Z,5.56
2017-03-16T03:42:43.713Z,5.45
2017-03-16T03:43:24.134Z,5.43
2017-03-16T03:44:04.541Z,5.53
2017-03-16T03:44:44.938Z,5.48
2017-03-16T03:45:25.334Z,5.41
2017-03-16T03:46:05.742Z,5.57
2017-03-16T03:46:46.131Z,5.55
2017-03-16T03:47:26.533Z,5.59
2017-03-16T03:48:07.742Z,5.52
2017-03-16T03:48:48.158Z,5.46
2017-03-16T03:49:28.554Z,5.52
2017-03-16T03:50:08.956Z,5.59
2017-03-16T03:50:49.389Z,5.53
2017-03-16T03:53:02.012Z,5.49
2017-03-16T03:53:42.452Z,5.5
2017-03-16T03:54:22.868Z,5.55
2017-03-16T03:55:03.819Z,5.57
2017-03-16T03:55:44.271Z,5.45
2017-03-16T03:56:24.702Z,5.43
2017-03-16T03:57:05.085Z,5.45
2017-03-16T03:58:57.556Z,5.28
2017-03-16T03:59:37.995Z,5.28
2017-03-16T04:00:18.447Z,5.37
2017-03-16T04:00:58.843Z,5.31
2017-03-16T04:01:39.291Z,5.31
2017-03-16T04:02:21.625Z,5.28
2017-03-16T04:03:02.070Z,5.23
2017-03-16T04:03:42.497Z,5.22
2017-03-16T04:05:19.841Z,5.25
2017-03-16T04:06:01.223Z,5.3
2017-03-16T04:06:41.668Z,5.22
2017-03-16T04:07:22.718Z,5.2
2017-03-16T04:08:03.173Z,5.17
2017-03-16T04:08:43.621Z,5.2
2017-03-16T04:09:24.037Z,5.28
2017-03-16T04:10:04.491Z,5.17
2017-03-16T04:10:44.894Z,5.17
2017-03-16T04:11:25.304Z,5.13
2017-03-16T04:13:12.705Z,5.14
2017-03-16T04:13:53.134Z,5.16
2017-03-16T04:14:33.593Z,5.14
2017-03-16T04:15:14.009Z,5.12
2017-03-16T04:15:54.433Z,5.17
2017-03-16T04:16:34.857Z,5.14
2017-03-16T04:17:15.278Z,5.16
2017-03-16T04:17:55.675Z,5.07
2017-03-16T04:18:36.088Z,5.07
2017-03-16T04:20:13.454Z,5.05
2017-03-16T04:20:53.831Z,5.05
2017-03-16T04:23:06.506Z,5.17
2017-03-16T04:23:46.904Z,5.04
2017-03-16T04:24:27.324Z,5.05
2017-03-16T04:25:07.753Z,5.05
2017-03-16T04:25:48.124Z,5.05
2017-03-16T04:26:28.523Z,5.09
2017-03-16T04:27:08.943Z,5.07
2017-03-16T04:27:49.349Z,5.19
2017-03-16T04:28:29.783Z,5.1
2017-03-16T04:29:10.186Z,5.07
2017-03-16T04:29:51.300Z,4.99
2017-03-16T04:30:31.723Z,5.05
2017-03-16T04:32:44.572Z,4.94
2017-03-16T04:33:24.938Z,4.96
2017-03-16T04:34:05.333Z,4.99
2017-03-16T04:34:45.727Z,4.95
2017-03-16T04:35:26.097Z,5.09
2017-03-16T04:36:07.494Z,4.99
2017-03-16T04:36:47.905Z,4.98
2017-03-16T04:37:28.273Z,4.95
2017-03-16T04:38:09.447Z,4.95
2017-03-16T04:38:49.848Z,5.01
2017-03-16T04:39:30.237Z,4.99
2017-03-16T04:40:10.630Z,4.99
2017-03-16T04:40:51.016Z,4.95
2017-03-16T04:41:32.379Z,4.89
2017-03-16T04:42:12.791Z,4.88
2017-03-16T04:42:53.197Z,4.89
2017-03-16T04:43:33.587Z,4.91
2017-03-16T04:44:14.001Z,4.88
2017-03-16T04:44:54.397Z,4.89
2017-03-16T04:45:34.806Z,4.91
2017-03-16T04:46:15.185Z,4.96
2017-03-16T04:46:55.665Z,5.01
2017-03-16T04:47:36.796Z,4.96
2017-03-16T04:49:24.308Z,4.99
2017-03-16T04:50:04.525Z,5.09
2017-03-16T04:51:41.867Z,5.05
2017-03-16T04:52:22.267Z,5.22
2017-03-16T04:53:02.703Z,5.14
2017-03-16T04:53:43.142Z,5.09
2017-03-16T04:54:23.613Z,5.09
2017-03-16T04:55:04.026Z,5.07
2017-03-16T04:55:44.466Z,5.12
2017-03-16T04:56:24.855Z,5.07
2017-03-16T04:57:05.304Z,5.09
2017-03-16T04:57:45.748Z,5.13
2017-03-16T04:58:26.151Z,5.22
2017-03-16T04:59:06.565Z,5.16
2017-03-16T05:01:04.352Z,5.19
2017-03-16T05:01:44.556Z,5.17
2017-03-16T05:02:24.966Z,5.17
2017-03-16T05:03:05.356Z,5.13
2017-03-16T05:03:45.772Z,5.19
2017-03-16T05:04:26.148Z,5.14
2017-03-16T05:05:06.566Z,5.22
2017-03-16T05:05:46.948Z,5.16
2017-03-16T05:06:27.343Z,5.2
2017-03-16T05:07:07.742Z,5.17
2017-03-16T05:07:48.148Z,5.17
2017-03-16T05:08:28.551Z,5.19
2017-03-16T05:10:21.016Z,5.1
2017-03-16T05:11:01.996Z,5.05
2017-03-16T05:11:42.416Z,5.02
2017-03-16T05:12:22.853Z,5.13
2017-03-16T05:13:03.260Z,5.04
2017-03-16T05:13:43.657Z,5.05
2017-03-16T05:14:24.083Z,4.95
2017-03-16T05:15:04.521Z,4.98
2017-03-16T05:15:44.941Z,4.95
2017-03-16T05:16:25.375Z,4.95
2017-03-16T05:17:05.797Z,5.01
2017-03-16T05:17:46.249Z,4.94
2017-03-16T05:18:26.678Z,4.98
2017-03-16T05:19:07.099Z,4.95
2017-03-16T05:19:47.533Z,4.99
2017-03-16T05:20:27.921Z,4.88
2017-03-16T05:22:25.503Z,4.98
2017-03-16T05:23:05.944Z,4.92
2017-03-16T05:23:46.368Z,4.89
2017-03-16T05:24:27.482Z,4.88
2017-03-16T05:25:07.944Z,4.8
2017-03-16T05:25:48.361Z,4.8
2017-03-16T05:26:28.790Z,4.76
2017-03-16T05:27:09.208Z,4.79
2017-03-16T05:27:49.649Z,4.86
2017-03-16T05:28:30.078Z,4.86
2017-03-16T05:29:10.512Z,4.88
2017-03-16T05:29:50.934Z,4.8
2017-03-16T05:30:31.350Z,4.86
2017-03-16T05:31:11.789Z,4.79
2017-03-16T05:33:24.547Z,4.77
2017-03-16T05:34:04.855Z,4.77
2017-03-16T05:34:45.988Z,4.77
2017-03-16T05:36:33.399Z,4.7
2017-03-16T05:37:13.787Z,4.64
2017-03-16T05:37:54.217Z,4.72
2017-03-16T05:38:34.668Z,4.69
2017-03-16T05:39:15.061Z,4.72
2017-03-16T05:39:55.502Z,4.7
2017-03-16T05:40:35.934Z,4.73
2017-03-16T05:41:18.005Z,4.65
2017-03-16T05:41:58.422Z,4.59
2017-03-16T05:42:38.830Z,4.59
2017-03-16T05:43:19.238Z,4.62
2017-03-16T05:43:59.675Z,4.59
2017-03-16T05:44:40.110Z,4.59
2017-03-16T05:45:20.552Z,4.47
2017-03-16T05:46:00.997Z,4.47
2017-03-16T05:48:13.818Z,4.37
2017-03-16T05:48:54.103Z,4.47
2017-03-16T05:49:34.489Z,4.43
2017-03-16T05:50:14.883Z,4.4
2017-03-16T05:50:55.273Z,4.43
2017-03-16T05:51:35.696Z,4.44
2017-03-16T05:52:16.085Z,4.43
2017-03-16T05:52:56.461Z,4.39
2017-03-16T05:54:54.110Z,4.43
2017-03-16T05:55:34.429Z,4.43
2017-03-16T05:56:14.873Z,4.4
2017-03-16T05:56:55.307Z,4.4
2017-03-16T05:58:42.688Z,4.43
2017-03-16T05:59:23.106Z,4.39
2017-03-16T06:00:03.540Z,4.36
2017-03-16T06:00:43.963Z,4.46
2017-03-16T06:01:24.388Z,4.46
2017-03-16T06:02:04.838Z,4.5
2017-03-16T06:02:45.259Z,4.37
2017-03-16T06:03:25.712Z,4.39
2017-03-16T06:04:06.120Z,4.42
2017-03-16T06:04:46.561Z,4.47
2017-03-16T06:05:26.974Z,4.43
2017-03-16T06:06:07.395Z,4.34
2017-03-16T06:06:47.852Z,4.4
2017-03-16T06:07:28.275Z,4.46
2017-03-16T06:08:08.713Z,4.39
2017-03-16T06:08:49.118Z,4.29
2017-03-16T06:09:29.547Z,4.36
2017-03-16T06:10:09.996Z,4.33
2017-03-16T06:10:50.407Z,4.39
2017-03-16T06:11:30.863Z,4.44
2017-03-16T06:12:11.262Z,4.37
2017-03-16T06:12:51.668Z,4.4
2017-03-16T06:13:32.101Z,4.46
2017-03-16T06:14:12.523Z,4.42
2017-03-16T06:15:49.842Z,4.52
2017-03-16T06:16:30.280Z,4.55
2017-03-16T06:17:10.713Z,4.59
2017-03-16T06:17:51.161Z,4.62
2017-03-16T06:18:31.618Z,4.61
2017-03-16T06:19:12.047Z,4.67
2017-03-16T06:19:52.554Z,4.77
2017-03-16T06:20:33.075Z,4.8
2017-03-16T06:21:13.499Z,4.73
2017-03-16T06:21:53.912Z,4.8
2017-03-16T06:22:34.346Z,4.86
2017-03-16T06:23:14.787Z,4.77
2017-03-16T06:25:27.472Z,4.88
2017-03-16T06:26:07.829Z,4.76
2017-03-16T06:26:48.236Z,4.86
2017-03-16T06:27:28.618Z,4.83
2017-03-16T06:28:09.037Z,4.83
2017-03-16T06:28:49.436Z,4.91
2017-03-16T06:29:29.868Z,4.91
2017-03-16T06:30:10.254Z,4.94
2017-03-16T06:30:50.645Z,5.04
2017-03-16T06:31:31.042Z,5.09
2017-03-16T06:32:11.454Z,5.14
2017-03-16T06:32:51.836Z,5.17
2017-03-16T06:34:49.412Z,5.27
2017-03-16T06:35:29.822Z,5.27
2017-03-16T06:36:10.298Z,5.32
2017-03-16T06:36:50.683Z,5.37
2017-03-16T06:37:31.094Z,5.37
2017-03-16T06:38:11.530Z,5.49
2017-03-16T06:38:51.976Z,5.48
2017-03-16T06:39:32.419Z,5.46
2017-03-16T06:40:12.858Z,5.66
2017-03-16T06:40:53.302Z,5.59
2017-03-16T06:41:33.747Z,5.6
2017-03-16T06:42:14.175Z,5.52
2017-03-16T06:42:54.608Z,5.66
2017-03-16T06:43:35.031Z,5.74
2017-03-16T06:44:15.477Z,5.74
2017-03-16T06:44:55.917Z,5.68
2017-03-16T06:45:36.341Z,5.68
2017-03-16T06:47:48.977Z,5.53
2017-03-16T06:48:29.402Z,5.6
2017-03-16T06:49:09.823Z,5.59
2017-03-16T06:49:50.254Z,5.46
2017-03-16T06:50:30.679Z,5.43
2017-03-16T06:51:11.150Z,5.57
2017-03-16T06:51:51.554Z,5.53
2017-03-16T06:52:31.996Z,5.55
2017-03-16T06:53:12.437Z,5.57
2017-03-16T06:53:52.863Z,5.57
2017-03-16T06:54:33.289Z,5.57
2017-03-16T06:55:13.737Z,5.64
2017-03-16T06:55:54.174Z,5.55
2017-03-16T06:56:34.610Z,5.64
2017-03-16T06:57:15.043Z,5.7
2017-03-16T06:57:55.469Z,5.68
2017-03-16T06:58:35.952Z,5.82
2017-03-16T06:59:16.394Z,5.86
2017-03-16T06:59:56.820Z,5.92
2017-03-16T07:00:37.272Z,5.85
2017-03-16T07:01:17.697Z,5.96
2017-03-16T07:01:58.143Z,5.93
2017-03-16T07:02:38.599Z,5.93
2017-03-16T07:03:19.027Z,6
2017-03-16T07:03:59.447Z,6
2017-03-16T07:04:39.902Z,6.01
2017-03-16T07:05:20.332Z,5.98
2017-03-16T07:06:00.767Z,5.93
2017-03-16T07:06:41.191Z,6.01
2017-03-16T07:07:21.651Z,6.04
2017-03-16T07:08:02.080Z,6.1
2017-03-16T07:08:42.538Z,6.14
2017-03-16T07:09:22.958Z,6.07
2017-03-16T07:11:00.385Z,6.26
2017-03-16T07:11:40.759Z,6.35
2017-03-16T07:12:21.174Z,6.36
2017-03-16T07:13:01.638Z,6.35
2017-03-16T07:13:42.080Z,6.41
2017-03-16T07:14:22.550Z,6.51
2017-03-16T07:15:03.038Z,6.72
2017-03-16T07:15:43.496Z,6.94
2017-03-16T07:16:23.927Z,7.08
2017-03-16T07:17:04.332Z,7.16
2017-03-16T07:17:45.444Z,7.34
2017-03-16T07:18:25.878Z,7.59
2017-03-16T07:19:06.328Z,7.69
2017-03-16T07:19:46.815Z,7.87
2017-03-16T07:20:27.257Z,8.15
2017-03-16T07:21:07.769Z,8.25
2017-03-16T07:21:48.124Z,8.33
2017-03-16T07:22:28.582Z,8.26
2017-03-16T07:23:09.051Z,8.4
2017-03-16T07:23:49.686Z,8.6
2017-03-16T07:24:29.965Z,8.65
2017-03-16T07:25:10.459Z,8.94
2017-03-16T07:25:50.842Z,9.25
2017-03-16T07:26:31.287Z,9.27
2017-03-16T07:28:23.894Z,9.53
2017-03-16T07:29:04.285Z,9.7
2017-03-16T07:29:44.757Z,9.28
2017-03-16T07:30:25.221Z,9.49
2017-03-16T07:31:05.694Z,9.79
2017-03-16T07:31:46.138Z,9.81
2017-03-16T07:32:26.623Z,10.18
2017-03-16T07:33:07.130Z,9.96
2017-03-16T07:33:47.571Z,10.22
2017-03-16T07:34:28.012Z,10.39
2017-03-16T07:35:08.447Z,10.32
2017-03-16T07:35:48.880Z,10.07
2017-03-16T07:36:29.376Z,10.43
2017-03-16T07:37:09.855Z,10.84
2017-03-16T07:38:57.400Z,11.24
2017-03-16T07:39:37.817Z,11.68
2017-03-16T07:40:18.294Z,11.83
2017-03-16T07:40:58.788Z,11.93
2017-03-16T07:41:39.257Z,12.3
2017-03-16T07:42:19.853Z,12.74
2017-03-16T07:43:00.370Z,13.07
2017-03-16T07:43:40.824Z,13
2017-03-16T07:44:21.315Z,12.99
2017-03-16T07:45:01.798Z,13.03
2017-03-16T07:45:42.293Z,12.78
2017-03-16T07:47:29.756Z,13.03
2017-03-16T07:48:10.244Z,13.06
2017-03-16T07:48:50.730Z,12.66
2017-03-16T07:49:31.240Z,12.67
2017-03-16T07:50:11.645Z,12.31
2017-03-16T07:50:52.075Z,12.31
2017-03-16T07:51:32.551Z,12.12
2017-03-16T07:52:13.005Z,12.12
2017-03-16T07:52:53.483Z,12.06
2017-03-16T07:53:33.943Z,12.01
2017-03-16T07:55:11.299Z,12.02
2017-03-16T07:55:51.757Z,12.37
2017-03-16T07:56:32.246Z,12.3
2017-03-16T07:57:12.679Z,11.9
2017-03-16T07:57:53.124Z,12.34
2017-03-16T08:00:05.872Z,13.14
2017-03-16T08:00:46.260Z,12.85
2017-03-16T08:01:26.693Z,12.96
2017-03-16T08:03:19.290Z,12.78
2017-03-16T08:03:59.724Z,12.04
2017-03-16T08:04:40.230Z,11.78
2017-03-16T08:05:20.704Z,11.77
2017-03-16T08:06:01.201Z,11.5
2017-03-16T08:06:41.672Z,11.27
2017-03-16T08:07:22.177Z,11.01
2017-03-16T08:08:02.618Z,10.7
2017-03-16T08:08:43.123Z,10.43
2017-03-16T08:09:23.612Z,10.15
2017-03-16T08:10:04.096Z,9.93
2017-03-16T08:10:44.594Z,9.86
2017-03-16T08:11:25.093Z,10.01
2017-03-16T08:12:05.562Z,10
2017-03-16T08:12:45.997Z,9.97
2017-03-16T08:13:26.462Z,9.94
2017-03-16T08:14:06.922Z,9.79
2017-03-16T08:14:47.380Z,9.96
2017-03-16T08:15:27.861Z,9.93
2017-03-16T08:16:08.315Z,10.06
2017-03-16T08:17:45.648Z,9.82
2017-03-16T08:18:26.151Z,9.96
2017-03-16T08:19:06.648Z,9.93
2017-03-16T08:19:47.140Z,9.97
2017-03-16T08:20:27.624Z,10.09
2017-03-16T08:21:08.148Z,10.26
2017-03-16T08:21:48.637Z,10.42
2017-03-16T08:22:29.114Z,10.58
2017-03-16T08:23:09.621Z,10.89
2017-03-16T08:23:50.105Z,11.27
2017-03-16T08:24:30.586Z,11.53
2017-03-16T08:26:08.015Z,12.15
2017-03-16T08:26:48.436Z,12.78
2017-03-16T08:27:28.922Z,13.14
2017-03-16T08:28:09.396Z,13.38
2017-03-16T08:28:49.976Z,13.61
2017-03-16T08:29:30.443Z,13.27
2017-03-16T08:31:23.022Z,13.77
2017-03-16T08:32:03.504Z,14.09
2017-03-16T08:32:44.000Z,14.21
2017-03-16T08:33:24.471Z,14.49
2017-03-16T08:34:05.040Z,14.68
2017-03-16T08:34:45.509Z,14.72
2017-03-16T08:35:25.938Z,14.07
2017-03-16T08:36:06.424Z,14.64
2017-03-16T08:36:46.937Z,14.98
2017-03-16T08:37:27.394Z,15.36
2017-03-16T08:38:07.870Z,15.63
2017-03-16T08:38:48.352Z,15.2
2017-03-16T08:39:28.863Z,14.64
2017-03-16T08:40:09.334Z,15.08
2017-03-16T08:41:46.677Z,14.32
2017-03-16T08:42:27.315Z,14.42
2017-03-16T08:43:07.811Z,14.34
2017-03-16T08:43:48.353Z,14.83
2017-03-16T08:44:28.941Z,15.17
2017-03-16T08:45:09.467Z,14.94
2017-03-16T08:45:49.951Z,15.38
2017-03-16T08:46:30.448Z,15.3
2017-03-16T08:47:10.948Z,14.72
2017-03-16T08:47:51.438Z,14.67
2017-03-16T08:48:31.991Z,14.65
2017-03-16T08:49:12.482Z,14.35
2017-03-16T08:49:52.960Z,14.27
2017-03-16T08:50:33.515Z,14.67
2017-03-16T08:51:13.974Z,14.47
2017-03-16T08:51:54.496Z,13.91
2017-03-16T08:52:34.985Z,14.17
2017-03-16T08:53:15.537Z,14.83
2017-03-16T08:53:56.059Z,15.35
2017-03-16T08:54:36.588Z,15.46
2017-03-16T08:55:17.098Z,15.48
2017-03-16T08:55:57.598Z,15.45
2017-03-16T08:56:38.051Z,15.75
2017-03-16T08:58:15.404Z,15.42
2017-03-16T08:58:55.877Z,14.86
2017-03-16T08:59:36.386Z,14.84
2017-03-16T09:00:16.888Z,14.88
2017-03-16T09:00:57.434Z,14.83
2017-03-16T09:01:37.894Z,14.84
2017-03-16T09:02:18.364Z,15.35
2017-03-16T09:02:58.857Z,15.48
2017-03-16T09:04:36.473Z,16.74
2017-03-16T09:05:17.569Z,17.28
2017-03-16T09:05:58.056Z,17.13
2017-03-16T09:06:38.543Z,16.25
2017-03-16T09:07:19.016Z,16.12
2017-03-16T09:07:59.474Z,15.61
2017-03-16T09:08:44.965Z,15.49
2017-03-16T09:09:25.480Z,15.38
2017-03-16T09:10:05.928Z,14.9
2017-03-16T09:10:46.421Z,14.93
2017-03-16T09:11:26.911Z,15.2
2017-03-16T09:12:07.327Z,15.23
2017-03-16T09:12:48.348Z,14.93
2017-03-16T09:14:41.474Z,14.71
2017-03-16T09:15:21.977Z,14.99
2017-03-16T09:16:02.416Z,14.67
2017-03-16T09:16:42.895Z,15.01
2017-03-16T09:17:23.385Z,14.8
2017-03-16T09:18:03.873Z,14.61
2017-03-16T09:18:44.364Z,14.62
2017-03-16T09:19:24.838Z,14.68
2017-03-16T09:20:05.321Z,14.8
2017-03-16T09:20:45.819Z,14.27
2017-03-16T09:21:26.293Z,14.87
2017-03-16T09:22:06.767Z,14.98
2017-03-16T09:22:47.236Z,15.09
2017-03-16T09:23:27.751Z,15.06
2017-03-16T09:24:08.231Z,14.94
2017-03-16T09:24:48.711Z,15.05
2017-03-16T09:25:29.154Z,15.06
2017-03-16T09:26:09.615Z,15.31
2017-03-16T09:26:50.093Z,15.2
2017-03-16T09:27:30.622Z,15.05
2017-03-16T09:28:11.083Z,14.9
2017-03-16T09:28:51.591Z,15.09
2017-03-16T09:29:32.071Z,14.37
2017-03-16T09:30:12.536Z,14.86
2017-03-16T09:30:53.013Z,14.69
2017-03-16T09:32:45.572Z,14.94
2017-03-16T09:33:26.102Z,14.75
2017-03-16T09:34:06.623Z,14.99
2017-03-16T09:34:47.114Z,15.13
2017-03-16T09:35:27.641Z,15.08
2017-03-16T09:36:08.146Z,15.17
2017-03-16T09:36:48.676Z,14.42
2017-03-16T09:39:01.436Z,13.94
2017-03-16T09:39:41.879Z,14.02
2017-03-16T09:40:22.371Z,14.46
2017-03-16T09:41:02.860Z,14.68
2017-03-16T09:41:43.359Z,14.99
2017-03-16T09:42:23.815Z,15.49
2017-03-16T09:43:04.294Z,15.46
2017-03-16T09:45:17.081Z,14.91
2017-03-16T09:45:58.176Z,14.84
2017-03-16T09:46:38.685Z,15.28
2017-03-16T09:47:19.860Z,15.49
2017-03-16T09:48:01.018Z,15.84
2017-03-16T09:48:41.437Z,15.92
2017-03-16T09:50:18.839Z,15.57
2017-03-16T09:50:59.352Z,15.68
2017-03-16T09:51:39.922Z,15.89
2017-03-16T09:52:20.413Z,15.64
2017-03-16T09:53:00.875Z,15.75
2017-03-16T09:54:53.500Z,15.67
2017-03-16T09:55:33.926Z,15.81
2017-03-16T09:56:14.406Z,15.78
2017-03-16T09:56:54.879Z,15.43
2017-03-16T09:57:35.356Z,15.54
2017-03-16T09:58:15.847Z,15.6
2017-03-16T09:58:56.334Z,15.76
2017-03-16T09:59:36.826Z,15.57
2017-03-16T10:00:17.304Z,15.66
2017-03-16T10:00:57.848Z,15.6
2017-03-16T10:01:38.312Z,15.64
2017-03-16T10:02:18.797Z,15.54
2017-03-16T10:02:59.281Z,15.45
2017-03-16T10:03:39.772Z,15.23
2017-03-16T10:04:20.265Z,15.52
2017-03-16T10:05:00.784Z,15.61
2017-03-16T10:05:41.302Z,15.66
2017-03-16T10:06:21.781Z,16.11
2017-03-16T10:07:02.281Z,16.07
2017-03-16T10:07:42.751Z,16.78
2017-03-16T10:08:23.298Z,17.11
2017-03-16T10:09:03.846Z,17.54
2017-03-16T10:09:44.415Z,17.43
2017-03-16T10:10:24.912Z,17.47
2017-03-16T10:11:05.425Z,17.44
2017-03-16T10:11:45.905Z,17.36
2017-03-16T10:12:26.418Z,17.3
2017-03-16T10:13:06.903Z,17.5
2017-03-16T10:13:47.411Z,17.36
2017-03-16T10:14:27.894Z,17.14
2017-03-16T10:15:08.400Z,16.85
2017-03-16T10:15:48.856Z,16.86
2017-03-16T10:16:29.318Z,16.6